Time;durP1;ratioP1;P1;durP2;ratioP2;P2;SDS_P1;SDS_P2;PMS_P1;PMS_P2;Temp;Humidity;BMP_temperature;BMP_pressure;BME280_temperature;BME280_humidity;BME280_pressure;Samples;Min_cycle;Max_cycle;Signal;HPM_P1;HPM_P2
2024/03/11 00:00:46;;;;;;;44.67;26.88;;;;;;;5.33;100.00;99939.81;5077023;28;20511;-84
2024/03/11 00:03:12;;;;;;;44.83;27.02;;;;;;;5.33;100.00;99948.59;5095339;28;20042;-84
2024/03/11 00:05:37;;;;;;;48.03;27.38;;;;;;;5.32;100.00;99949.53;5095814;28;20027;-84
2024/03/11 00:08:05;;;;;;;48.88;27.20;;;;;;;5.31;100.00;99950.50;5096842;28;20028;-84
2024/03/11 00:10:33;;;;;;;47.58;28.08;;;;;;;5.29;100.00;99963.81;5096159;28;20082;-84
2024/03/11 00:13:00;;;;;;;44.42;26.38;;;;;;;5.28;100.00;99956.03;5102026;28;20028;-84
2024/03/11 00:15:25;;;;;;;41.63;26.58;;;;;;;5.28;100.00;99963.94;5104248;28;20036;-83
2024/03/11 00:17:51;;;;;;;46.33;28.25;;;;;;;5.27;100.00;99968.38;5102628;28;20028;-85
2024/03/11 00:20:20;;;;;;;43.95;27.38;;;;;;;5.27;100.00;99967.56;5097377;28;20476;-85
2024/03/11 00:22:46;;;;;;;46.92;27.90;;;;;;;5.28;100.00;99961.28;5095768;28;20028;-85
2024/03/11 00:25:12;;;;;;;48.60;27.13;;;;;;;5.28;100.00;99969.22;5076650;28;20060;-86
2024/03/11 00:27:38;;;;;;;44.78;27.27;;;;;;;5.29;100.00;99962.97;5094447;28;20036;-86
2024/03/11 00:30:12;;;;;;;49.13;26.70;;;;;;;5.29;100.00;99965.63;5060027;28;20115;-85
2024/03/11 00:32:43;;;;;;;46.47;28.88;;;;;;;5.28;100.00;99962.16;5094356;28;20036;-84
2024/03/11 00:35:09;;;;;;;54.95;30.05;;;;;;;5.28;100.00;99961.28;5093167;28;20081;-85
2024/03/11 00:37:34;;;;;;;50.38;28.58;;;;;;;5.28;100.00;99962.16;5094028;28;20043;-85
2024/03/11 00:40:00;;;;;;;54.22;31.10;;;;;;;5.30;100.00;99959.38;5094103;28;20020;-85
2024/03/11 00:42:26;;;;;;;56.70;33.53;;;;;;;5.30;100.00;99959.38;5095014;28;20508;-86
2024/03/11 00:44:51;;;;;;;58.13;32.58;;;;;;;5.32;100.00;99964.53;5094204;28;20020;-85
2024/03/11 00:47:21;;;;;;;60.88;31.88;;;;;;;5.33;100.00;99966.19;5076060;28;20095;-85
2024/03/11 00:49:47;;;;;;;54.22;30.58;;;;;;;5.32;100.00;99957.44;5094304;28;20077;-85
2024/03/11 00:52:14;;;;;;;53.67;31.30;;;;;;;5.34;100.00;99963.44;5093787;28;20028;-85
2024/03/11 00:54:40;;;;;;;66.93;32.55;;;;;;;5.34;100.00;99965.25;5075785;28;20468;-84
2024/03/11 00:57:06;;;;;;;54.72;30.73;;;;;;;5.32;100.00;99960.09;5094111;28;20521;-85
2024/03/11 00:59:31;;;;;;;51.13;28.60;;;;;;;5.30;100.00;99965.50;5093970;28;20062;-86
2024/03/11 01:01:58;;;;;;;58.97;32.33;;;;;;;5.30;100.00;99977.84;5075514;28;20059;-85
2024/03/11 01:04:23;;;;;;;58.97;31.92;;;;;;;5.26;100.00;99966.69;5076001;28;20043;-84
2024/03/11 01:06:49;;;;;;;57.20;31.17;;;;;;;5.24;100.00;99978.31;5093445;28;20495;-84
2024/03/11 01:09:20;;;;;;;54.15;31.77;;;;;;;5.21;100.00;99981.22;5093597;28;20476;-84
2024/03/11 01:11:48;;;;;;;58.63;31.58;;;;;;;5.16;100.00;99981.59;5076045;28;20138;-85
2024/03/11 01:14:14;;;;;;;55.00;31.20;;;;;;;5.12;100.00;99977.56;5075057;28;20119;-85
2024/03/11 01:16:40;;;;;;;58.33;31.48;;;;;;;5.07;100.00;99975.28;5093087;28;20114;-83
2024/03/11 01:19:07;;;;;;;60.40;32.85;;;;;;;5.03;100.00;99981.78;5075379;28;20032;-84
2024/03/11 01:21:35;;;;;;;57.40;31.65;;;;;;;4.99;100.00;99975.06;5093525;28;20028;-83
2024/03/11 01:24:03;;;;;;;61.20;32.42;;;;;;;4.94;100.00;99971.94;5093856;28;20020;-83
2024/03/11 01:26:29;;;;;;;66.13;32.08;;;;;;;4.91;100.00;99974.84;5094180;28;20356;-84
2024/03/11 01:28:55;;;;;;;54.20;30.48;;;;;;;4.87;100.00;99979.53;5093712;28;20027;-83
2024/03/11 01:31:23;;;;;;;58.53;32.33;;;;;;;4.83;100.00;99979.91;5075689;28;20134;-83
2024/03/11 01:33:49;;;;;;;59.80;30.92;;;;;;;4.79;100.00;99974.03;5077111;28;20020;-84
2024/03/11 01:36:15;;;;;;;64.28;31.42;;;;;;;4.74;100.00;99979.66;5082882;28;20024;-84
2024/03/11 01:38:40;;;;;;;59.70;32.20;;;;;;;4.70;100.00;99986.16;5113575;28;20041;-83
2024/03/11 01:41:06;;;;;;;60.20;31.33;;;;;;;4.67;100.00;99977.66;5098105;28;20031;-84
2024/03/11 01:43:31;;;;;;;55.85;31.55;;;;;;;4.64;100.00;99973.44;5116195;28;20529;-84
2024/03/11 01:45:57;;;;;;;58.92;33.20;;;;;;;4.64;100.00;99972.63;5116645;28;20020;-85
2024/03/11 01:48:26;;;;;;;65.60;33.22;;;;;;;4.64;100.00;99975.25;5119955;28;20055;-85
2024/03/11 01:50:51;;;;;;;66.13;34.40;;;;;;;4.64;100.00;99964.72;5100055;28;20032;-84
2024/03/11 01:53:17;;;;;;;68.78;33.90;;;;;;;4.63;100.00;99966.53;5120383;28;20152;-84
2024/03/11 01:55:46;;;;;;;70.88;34.05;;;;;;;4.60;100.00;99966.78;5091796;28;20040;-85
2024/03/11 01:58:13;;;;;;;63.40;34.08;;;;;;;4.59;100.00;99970.34;5102236;28;20059;-85
2024/03/11 02:00:41;;;;;;;71.43;35.30;;;;;;;4.57;100.00;99965.22;5100973;28;20026;-84
2024/03/11 02:03:06;;;;;;;70.57;35.05;;;;;;;4.59;100.00;99963.28;5098485;28;20028;-85
2024/03/11 02:05:34;;;;;;;71.18;35.67;;;;;;;4.59;100.00;99959.81;5097610;28;20084;-85
2024/03/11 02:08:03;;;;;;;70.82;34.33;;;;;;;4.59;100.00;99963.28;5097710;28;20024;-85
2024/03/11 02:10:29;;;;;;;65.25;35.03;;;;;;;4.57;100.00;99965.22;5096602;28;20060;-84
2024/03/11 02:12:57;;;;;;;66.25;34.55;;;;;;;4.55;100.00;99961.88;5096808;28;20039;-86
2024/03/11 02:15:23;;;;;;;61.67;34.08;;;;;;;4.55;100.00;99953.97;5096785;28;20050;-86
2024/03/11 02:17:49;;;;;;;68.68;35.72;;;;;;;4.55;100.00;99955.75;5078888;28;20028;-85
2024/03/11 02:20:16;;;;;;;66.82;33.35;;;;;;;4.53;100.00;99963.78;5096648;28;20408;-84
2024/03/11 02:22:55;;;;;;;68.10;34.20;;;;;;;4.51;100.00;99963.06;5078339;28;20027;-84
2024/03/11 02:25:26;;;;;;;70.38;34.97;;;;;;;4.50;100.00;99957.91;5096648;28;20035;-85
2024/03/11 02:27:53;;;;;;;64.78;35.13;;;;;;;4.49;100.00;99956.22;5096316;28;20020;-83
2024/03/11 02:30:19;;;;;;;64.70;35.22;;;;;;;4.47;100.00;99961.63;5096466;28;20035;-84
2024/03/11 02:32:45;;;;;;;66.22;34.13;;;;;;;4.44;100.00;99967.13;5096284;28;20020;-84
2024/03/11 02:35:11;;;;;;;64.60;33.28;;;;;;;4.43;100.00;99969.88;5078503;28;20036;-85
2024/03/11 02:37:36;;;;;;;66.38;35.05;;;;;;;4.41;100.00;99970.84;5096619;28;20373;-85
2024/03/11 02:40:09;;;;;;;65.88;32.55;;;;;;;4.40;100.00;99970.97;5096069;28;20032;-84
2024/03/11 02:42:35;;;;;;;61.90;34.00;;;;;;;4.38;100.00;99971.09;5095718;28;20506;-84
2024/03/11 02:45:05;;;;;;;63.17;33.63;;;;;;;4.38;100.00;99971.09;5096031;28;20036;-84
2024/03/11 02:47:34;;;;;;;61.03;32.78;;;;;;;4.38;100.00;99970.25;5095497;28;20042;-83
2024/03/11 02:50:00;;;;;;;59.78;33.40;;;;;;;4.38;100.00;99959.72;5077345;28;20368;-84
2024/03/11 02:52:26;;;;;;;66.68;34.80;;;;;;;4.39;100.00;99961.41;5095491;28;20032;-84
2024/03/11 02:54:53;;;;;;;60.25;32.75;;;;;;;4.39;100.00;99977.22;5096177;28;20081;-84
2024/03/11 02:57:19;;;;;;;61.20;32.95;;;;;;;4.38;100.00;99970.25;5094494;28;20028;-83
2024/03/11 02:59:45;;;;;;;62.85;32.20;;;;;;;4.39;100.00;99982.47;5095489;28;20024;-84
2024/03/11 03:02:10;;;;;;;67.97;35.35;;;;;;;4.41;100.00;99980.56;5095426;28;20032;-84
2024/03/11 03:04:39;;;;;;;60.15;32.65;;;;;;;4.41;100.00;99970.84;5096017;28;20509;-84
2024/03/11 03:07:06;;;;;;;58.40;32.33;;;;;;;4.41;100.00;99975.28;5095725;28;20043;-86
2024/03/11 03:09:31;;;;;;;65.20;33.22;;;;;;;4.41;100.00;99984.00;5095333;28;20044;-85
2024/03/11 03:11:58;;;;;;;62.13;33.30;;;;;;;4.44;100.00;99985.56;5077200;28;20510;-84
2024/03/11 03:14:25;;;;;;;68.50;34.80;;;;;;;4.45;100.00;99992.53;5077710;28;20032;-84
2024/03/11 03:16:51;;;;;;;64.35;34.15;;;;;;;4.45;100.00;99987.25;5095266;28;20043;-84
2024/03/11 03:19:17;;;;;;;63.88;33.22;;;;;;;4.47;100.00;99987.97;5077413;28;20501;-85
2024/03/11 03:21:42;;;;;;;67.75;34.22;;;;;;;4.49;100.00;99995.75;5095251;28;20023;-85
2024/03/11 03:24:07;;;;;;;58.47;31.58;;;;;;;4.49;100.00;99993.94;5095083;28;20426;-84
2024/03/11 03:26:33;;;;;;;62.03;33.08;;;;;;;4.50;100.00;99998.25;5077160;28;20061;-85
2024/03/11 03:28:58;;;;;;;62.78;32.13;;;;;;;4.51;100.00;99999.09;5095759;28;20110;-86
2024/03/11 03:31:27;;;;;;;64.10;33.08;;;;;;;4.53;100.00;100000.66;5095751;28;20074;-85
2024/03/11 03:33:53;;;;;;;62.95;32.35;;;;;;;4.53;100.00;100005.91;5095093;28;20059;-84
2024/03/11 03:36:18;;;;;;;61.25;33.55;;;;;;;4.54;100.00;100004.16;5095681;28;20039;-84
2024/03/11 03:38:44;;;;;;;64.60;32.75;;;;;;;4.55;100.00;99995.25;5095323;28;20032;-86
2024/03/11 03:41:10;;;;;;;57.15;31.83;;;;;;;4.57;100.00;99988.91;5094947;28;20345;-85
2024/03/11 03:43:35;;;;;;;52.78;29.80;;;;;;;4.62;100.00;99987.72;5076849;28;20107;-85
2024/03/11 03:46:00;;;;;;;56.53;31.33;;;;;;;4.65;100.00;99985.69;5095064;28;20353;-85
2024/03/11 03:48:26;;;;;;;58.67;31.90;;;;;;;4.70;100.00;99990.56;5076491;28;20028;-86
2024/03/11 03:50:52;;;;;;;59.35;32.25;;;;;;;4.69;100.00;99996.81;5094700;28;20425;-83
2024/03/11 03:53:18;;;;;;;58.78;31.55;;;;;;;4.69;100.00;99997.66;5094514;28;20059;-84
2024/03/11 03:55:44;;;;;;;58.33;31.73;;;;;;;4.68;100.00;99998.59;5094165;28;20109;-84
2024/03/11 03:58:09;;;;;;;56.45;31.10;;;;;;;4.68;100.00;99995.13;5076045;28;20054;-83
2024/03/11 04:00:35;;;;;;;55.38;31.10;;;;;;;4.68;100.00;99993.34;5093960;28;20110;-85
2024/03/11 04:03:03;;;;;;;57.83;31.27;;;;;;;4.68;100.00;99995.97;5094541;28;20028;-84
2024/03/11 04:05:28;;;;;;;62.28;32.45;;;;;;;4.68;100.00;99998.59;5094250;28;20051;-84
2024/03/11 04:07:55;;;;;;;57.75;32.22;;;;;;;4.69;100.00;100004.72;5075725;28;20059;-84
2024/03/11 04:10:23;;;;;;;57.30;31.52;;;;;;;4.68;100.00;99998.59;5093876;28;20059;-84
2024/03/11 04:12:50;;;;;;;58.50;32.75;;;;;;;4.70;100.00;99998.47;5076782;28;20039;-84
2024/03/11 04:15:21;;;;;;;54.85;30.63;;;;;;;4.69;100.00;99995.03;5093929;28;20020;-85
2024/03/11 04:17:50;;;;;;;59.42;31.15;;;;;;;4.70;100.00;99995.84;5094154;28;20111;-85
2024/03/11 04:20:19;;;;;;;56.92;31.45;;;;;;;4.68;100.00;99998.59;5094226;28;20361;-85
2024/03/11 04:22:49;;;;;;;58.88;32.22;;;;;;;4.68;100.00;99995.13;5094453;28;20020;-83
2024/03/11 04:25:26;;;;;;;57.90;31.20;;;;;;;4.67;100.00;99998.72;5093933;28;20069;-83
2024/03/11 04:27:53;;;;;;;62.45;31.55;;;;;;;4.67;100.00;99994.31;5093862;28;20047;-84
2024/03/11 04:30:20;;;;;;;56.55;33.15;;;;;;;4.68;100.00;99989.88;5093707;28;20495;-84
2024/03/11 04:32:52;;;;;;;60.92;31.63;;;;;;;4.68;100.00;99995.97;5075860;28;20024;-85
2024/03/11 04:35:24;;;;;;;60.38;32.15;;;;;;;4.67;100.00;99991.69;5093461;28;20028;-84
2024/03/11 04:37:52;;;;;;;62.67;32.88;;;;;;;4.68;100.00;99992.50;5075857;28;20028;-83
2024/03/11 04:40:18;;;;;;;62.72;31.63;;;;;;;4.67;100.00;99996.09;5094047;28;20020;-85
2024/03/11 04:42:44;;;;;;;58.72;31.88;;;;;;;4.67;100.00;99998.72;5076180;28;20036;-83
2024/03/11 04:45:09;;;;;;;56.90;31.50;;;;;;;4.65;100.00;99998.03;5075549;28;20031;-85
2024/03/11 04:47:36;;;;;;;61.58;31.20;;;;;;;4.66;100.00;99997.03;5094020;28;20024;-84
2024/03/11 04:50:02;;;;;;;63.88;32.03;;;;;;;4.65;100.00;99998.03;5093649;28;20020;-84
2024/03/11 04:52:27;;;;;;;58.40;32.53;;;;;;;4.65;100.00;99998.03;5093879;28;20036;-84
2024/03/11 04:54:52;;;;;;;60.30;32.83;;;;;;;4.64;100.00;100005.06;5093379;28;20024;-84
2024/03/11 04:57:18;;;;;;;60.28;32.47;;;;;;;4.62;100.00;99998.25;5075456;28;20488;-84
2024/03/11 04:59:43;;;;;;;61.15;33.05;;;;;;;4.59;100.00;100002.81;5093882;28;20035;-84
2024/03/11 05:02:09;;;;;;;54.88;30.67;;;;;;;4.58;100.00;100006.41;5094585;28;20054;-83
2024/03/11 05:04:35;;;;;;;61.03;33.50;;;;;;;4.55;100.00;100001.38;5095845;28;20020;-84
2024/03/11 05:07:00;;;;;;;64.28;34.22;;;;;;;4.55;100.00;100011.94;5099374;28;20024;-82
2024/03/11 05:09:26;;;;;;;64.15;34.03;;;;;;;4.54;100.00;100010.25;5102532;28;20052;-83
2024/03/11 05:11:51;;;;;;;66.75;34.15;;;;;;;4.51;100.00;100007.00;5084975;28;20066;-83
2024/03/11 05:14:16;;;;;;;56.65;33.60;;;;;;;4.47;100.00;100011.69;5086073;28;20027;-84
2024/03/11 05:16:42;;;;;;;63.33;33.45;;;;;;;4.45;100.00;100008.34;5099103;28;20063;-85
2024/03/11 05:19:07;;;;;;;57.03;31.88;;;;;;;4.40;100.00;100006.06;5094381;28;20581;-84
2024/03/11 05:21:33;;;;;;;58.75;32.83;;;;;;;4.38;100.00;100007.97;5096039;28;20032;-84
2024/03/11 05:23:59;;;;;;;62.67;33.45;;;;;;;4.37;100.00;100003.66;5097585;28;20024;-84
2024/03/11 05:26:24;;;;;;;57.03;32.45;;;;;;;4.36;100.00;100011.66;5097952;28;20028;-86
2024/03/11 05:28:50;;;;;;;67.18;34.78;;;;;;;4.35;100.00;100010.00;5098002;28;20116;-84
2024/03/11 05:31:16;;;;;;;64.88;34.45;;;;;;;4.31;100.00;100016.47;5097216;28;20192;-84
2024/03/11 05:33:42;;;;;;;63.88;33.15;;;;;;;4.28;100.00;100022.78;5079435;28;20066;-84
2024/03/11 05:36:07;;;;;;;62.65;33.60;;;;;;;4.24;100.00;100016.94;5079600;28;20447;-83
2024/03/11 05:38:33;;;;;;;61.88;34.25;;;;;;;4.22;100.00;100018.88;5062413;28;20035;-85
2024/03/11 05:40:59;;;;;;;69.75;33.95;;;;;;;4.21;100.00;100032.13;5063222;28;20028;-84
2024/03/11 05:43:24;;;;;;;55.78;32.25;;;;;;;4.17;100.00;100031.53;5097039;28;20429;-84
2024/03/11 05:45:50;;;;;;;65.93;34.33;;;;;;;4.17;100.00;100042.06;5078740;28;20035;-84
2024/03/11 05:48:18;;;;;;;63.33;34.22;;;;;;;4.16;100.00;100043.00;5096616;28;20110;-83
2024/03/11 05:50:45;;;;;;;65.65;34.85;;;;;;;4.17;100.00;100046.50;5079212;28;20502;-83
2024/03/11 05:53:12;;;;;;;65.07;35.25;;;;;;;4.17;100.00;100054.41;5078466;28;20054;-82
2024/03/11 05:55:41;;;;;;;61.95;33.88;;;;;;;4.17;100.00;100055.22;5096748;28;20028;-82
2024/03/11 05:58:10;;;;;;;67.22;33.47;;;;;;;4.18;100.00;100061.31;5096680;28;20106;-81
2024/03/11 06:00:42;;;;;;;64.05;33.60;;;;;;;4.18;100.00;100056.91;5096427;28;20395;-83
2024/03/11 06:03:08;;;;;;;67.25;33.95;;;;;;;4.21;100.00;100071.63;5078445;28;20406;-82
2024/03/11 06:05:33;;;;;;;66.53;36.13;;;;;;;4.21;100.00;100068.97;5097055;28;20023;-83
2024/03/11 06:07:59;;;;;;;73.80;37.58;;;;;;;4.22;100.00;100068.03;5096850;28;20081;-83
2024/03/11 06:10:24;;;;;;;71.18;36.90;;;;;;;4.24;100.00;100079.31;5060988;28;20040;-82
2024/03/11 06:12:50;;;;;;;77.25;36.85;;;;;;;4.27;100.00;100075.59;5096145;28;20111;-83
2024/03/11 06:15:16;;;;;;;73.20;37.42;;;;;;;4.30;100.00;100085.88;5061268;28;20115;-82
2024/03/11 06:17:42;;;;;;;72.97;36.45;;;;;;;4.33;100.00;100083.00;5095884;28;20028;-82
2024/03/11 06:20:09;;;;;;;75.43;38.03;;;;;;;4.36;100.00;100085.41;5096576;28;20051;-82
2024/03/11 06:22:35;;;;;;;74.07;38.25;;;;;;;4.38;100.00;100092.25;5096177;28;20024;-81
2024/03/11 06:25:04;;;;;;;71.72;36.63;;;;;;;4.43;100.00;100098.97;5095759;28;20024;-82
2024/03/11 06:27:29;;;;;;;73.18;36.42;;;;;;;4.45;100.00;100104.94;5095609;28;20027;-82
2024/03/11 06:29:56;;;;;;;73.07;37.75;;;;;;;4.47;100.00;100100.41;5095773;28;20043;-82
2024/03/11 06:32:23;;;;;;;72.47;36.97;;;;;;;4.51;100.00;100101.84;5094393;28;20024;-82
2024/03/11 06:34:49;;;;;;;71.00;38.17;;;;;;;4.53;100.00;100111.31;5095854;28;20032;-83
2024/03/11 06:37:14;;;;;;;69.97;38.40;;;;;;;4.56;100.00;100111.06;5095565;28;20169;-81
2024/03/11 06:39:40;;;;;;;74.90;38.78;;;;;;;4.60;100.00;100116.97;5095972;28;20028;-82
2024/03/11 06:42:05;;;;;;;71.20;37.15;;;;;;;4.62;100.00;100114.22;5077759;28;20031;-82
2024/03/11 06:44:31;;;;;;;72.15;37.83;;;;;;;4.65;100.00;100113.97;5060867;28;20024;-81
2024/03/11 06:46:58;;;;;;;68.90;36.40;;;;;;;4.67;100.00;100114.69;5095588;28;20051;-81
2024/03/11 06:49:23;;;;;;;76.93;37.83;;;;;;;4.70;100.00;100117.06;5077129;28;20114;-82
2024/03/11 06:51:50;;;;;;;69.00;37.78;;;;;;;4.72;100.00;100117.81;5096083;28;20021;-82
2024/03/11 06:54:16;;;;;;;75.60;38.88;;;;;;;4.76;100.00;100113.97;5095234;28;20024;-81
2024/03/11 06:56:41;;;;;;;70.47;38.10;;;;;;;4.81;100.00;100124.13;5095806;28;20024;-82
2024/03/11 06:59:10;;;;;;;75.40;38.30;;;;;;;4.82;100.00;100123.19;5095867;28;20032;-82
2024/03/11 07:01:36;;;;;;;70.32;37.58;;;;;;;4.85;100.00;100122.94;5095745;28;20024;-83
2024/03/11 07:04:03;;;;;;;75.38;38.05;;;;;;;4.89;100.00;100127.03;5077217;28;20020;-82
2024/03/11 07:06:29;;;;;;;73.63;36.78;;;;;;;4.92;100.00;100126.78;5061205;28;20481;-82
2024/03/11 07:08:54;;;;;;;73.20;37.85;;;;;;;4.92;100.00;100127.63;5078746;28;20024;-83
2024/03/11 07:11:21;;;;;;;72.85;37.97;;;;;;;4.95;100.00;100132.66;5096394;28;20063;-83
2024/03/11 07:13:47;;;;;;;67.22;35.75;;;;;;;4.98;100.00;100136.84;5095347;28;20042;-82
2024/03/11 07:16:13;;;;;;;75.38;38.08;;;;;;;5.02;100.00;100134.84;5078413;28;20468;-83
2024/03/11 07:18:42;;;;;;;76.70;39.17;;;;;;;5.07;100.00;100127.38;5079228;28;20028;-82
2024/03/11 07:21:08;;;;;;;73.82;37.33;;;;;;;5.14;100.00;100144.41;5097282;28;20054;-82
2024/03/11 07:23:33;;;;;;;75.75;38.00;;;;;;;5.21;100.00;100140.31;5097854;28;20028;-82
2024/03/11 07:26:00;;;;;;;71.93;37.33;;;;;;;5.29;100.00;100145.00;5082276;28;20020;-81
2024/03/11 07:28:46;;;;;;;74.93;38.35;;;;;;;5.38;100.00;100149.53;5111838;28;20035;-81
2024/03/11 07:31:12;;;;;;;73.50;38.65;;;;;;;5.46;100.00;100151.56;5113260;28;20356;-82
2024/03/11 07:33:39;;;;;;;69.38;37.17;;;;;;;5.53;100.00;100158.00;5061918;28;20035;-81
2024/03/11 07:36:06;;;;;;;70.45;37.42;;;;;;;5.56;100.00;100155.13;5114243;28;20028;-81
2024/03/11 07:38:31;;;;;;;71.15;38.25;;;;;;;5.60;100.00;100161.84;5104843;28;20364;-84
2024/03/11 07:40:57;;;;;;;73.07;37.72;;;;;;;5.65;100.00;100166.75;5095816;28;20027;-81
2024/03/11 07:43:22;;;;;;;69.07;36.97;;;;;;;5.68;100.00;100168.31;5095147;28;20441;-79
2024/03/11 07:45:48;;;;;;;70.15;37.75;;;;;;;5.72;100.00;100164.44;5076785;28;20552;-81
2024/03/11 07:48:13;;;;;;;71.43;37.17;;;;;;;5.74;100.00;100163.38;5094875;28;20032;-80
2024/03/11 07:50:40;;;;;;;68.53;36.97;;;;;;;5.77;100.00;100164.91;5094876;28;20035;-80
2024/03/11 07:53:05;;;;;;;69.93;36.28;;;;;;;5.79;100.00;100163.84;5094536;28;20028;-86
2024/03/11 07:55:33;;;;;;;73.22;37.08;;;;;;;5.83;100.00;100169.69;5094604;28;20051;-85
2024/03/11 07:58:00;;;;;;;68.53;35.72;;;;;;;5.88;100.00;100170.19;5095079;28;20028;-84
2024/03/11 08:00:35;;;;;;;66.55;36.65;;;;;;;5.92;100.00;100173.41;5094198;28;20032;-81
2024/03/11 08:03:02;;;;;;;65.03;35.72;;;;;;;5.98;100.00;100173.75;5094419;28;20016;-80
2024/03/11 08:05:28;;;;;;;70.88;36.85;;;;;;;6.02;100.00;100171.72;5093883;28;20051;-81
2024/03/11 08:07:55;;;;;;;64.80;37.47;;;;;;;6.08;100.00;100176.50;5093913;28;20439;-83
2024/03/11 08:10:20;;;;;;;63.42;35.90;;;;;;;6.13;100.00;100170.81;5094244;28;20426;-83
2024/03/11 08:12:48;;;;;;;64.97;35.17;;;;;;;6.16;100.00;100168.75;5093894;28;20028;-83
2024/03/11 08:15:15;;;;;;;60.30;33.13;;;;;;;6.21;100.00;100181.63;5076152;28;20408;-83
2024/03/11 08:17:42;;;;;;;62.92;34.70;;;;;;;6.23;100.00;100184.94;5093476;28;20030;-84
2024/03/11 08:20:16;;;;;;;68.55;36.72;;;;;;;6.28;100.00;100187.22;5077451;28;20024;-82
2024/03/11 08:22:43;;;;;;;63.38;34.45;;;;;;;6.34;100.00;100184.06;5093593;28;20038;-83
2024/03/11 08:25:12;;;;;;;63.22;35.42;;;;;;;6.39;100.00;100186.31;5075895;28;20495;-81
2024/03/11 08:27:38;;;;;;;61.55;33.95;;;;;;;6.47;100.00;100187.34;5094417;28;20052;-83
2024/03/11 08:30:07;;;;;;;63.72;35.08;;;;;;;6.51;100.00;100194.06;5097076;28;20032;-83
2024/03/11 08:32:33;;;;;;;60.00;34.63;;;;;;;6.58;100.00;100193.53;5105351;28;20028;-79
2024/03/11 08:34:59;;;;;;;62.80;34.50;;;;;;;6.64;100.00;100206.25;5116333;28;20046;-79
2024/03/11 08:37:24;;;;;;;57.60;34.08;;;;;;;6.67;100.00;100208.63;5117057;28;20012;-80
2024/03/11 08:39:51;;;;;;;62.03;34.97;;;;;;;6.66;100.00;100214.91;5116966;28;20027;-79
2024/03/11 08:42:18;;;;;;;57.50;33.22;;;;;;;6.64;100.00;100208.88;5117968;28;20015;-80
2024/03/11 08:44:44;;;;;;;58.72;33.20;;;;;;;6.64;100.00;100219.47;5100027;28;20055;-80
2024/03/11 08:47:12;;;;;;;57.72;34.38;;;;;;;6.59;100.00;100224.31;5082144;28;20032;-80
2024/03/11 08:49:39;;;;;;;56.42;33.28;;;;;;;6.59;100.00;100214.56;5090877;28;20035;-81
2024/03/11 08:52:06;;;;;;;61.15;34.42;;;;;;;6.58;100.00;100223.44;5099470;28;20054;-79
2024/03/11 08:54:35;;;;;;;58.72;34.70;;;;;;;6.58;100.00;100218.16;5096928;28;20080;-79
2024/03/11 08:57:03;;;;;;;61.63;34.15;;;;;;;6.58;100.00;100226.09;5081751;28;20024;-80
2024/03/11 08:59:30;;;;;;;63.42;34.65;;;;;;;6.58;100.00;100230.56;5099398;28;20027;-79
2024/03/11 09:01:57;;;;;;;62.72;36.35;;;;;;;6.55;100.00;100223.72;5080377;28;20472;-80
2024/03/11 09:04:28;;;;;;;61.05;34.33;;;;;;;6.53;100.00;100225.66;5097996;28;20056;-80
2024/03/11 09:06:56;;;;;;;66.97;35.90;;;;;;;6.52;100.00;100226.59;5097671;28;20112;-79
2024/03/11 09:09:26;;;;;;;68.63;35.65;;;;;;;6.50;100.00;100232.03;5097284;28;20044;-78
2024/03/11 09:11:56;;;;;;;63.22;35.97;;;;;;;6.50;100.00;100237.31;5097496;28;20064;-79
2024/03/11 09:14:25;;;;;;;65.78;35.25;;;;;;;6.50;100.00;100237.31;5097168;28;20099;-79
2024/03/11 09:16:55;;;;;;;69.20;36.47;;;;;;;6.51;100.00;100239.00;5079385;28;20103;-78
2024/03/11 09:19:26;;;;;;;66.45;36.92;;;;;;;6.50;100.00;100237.31;5079437;28;20150;-80
2024/03/11 09:21:53;;;;;;;64.97;35.17;;;;;;;6.55;100.00;100239.56;5097497;28;20023;-79
2024/03/11 09:24:22;;;;;;;67.95;36.58;;;;;;;6.58;100.00;100249.06;5096985;28;20456;-78
2024/03/11 09:26:51;;;;;;;69.15;36.42;;;;;;;6.63;100.00;100247.72;5096904;28;20142;-77
2024/03/11 09:29:18;;;;;;;65.07;35.22;;;;;;;6.70;100.00;100253.31;5078743;28;20070;-77
2024/03/11 09:31:45;;;;;;;64.88;35.88;;;;;;;6.75;100.00;100253.78;5096841;28;20024;-78
2024/03/11 09:34:11;;;;;;;74.53;36.83;;;;;;;6.79;100.00;100247.28;5096901;28;20028;-77
2024/03/11 09:36:38;;;;;;;66.53;37.67;;;;;;;6.79;100.00;100254.34;5078382;28;20051;-78
2024/03/11 09:39:14;;;;;;;63.15;37.80;;;;;;;6.76;100.00;100255.44;5096517;28;20020;-75
2024/03/11 09:41:45;;;;;;;63.47;35.90;;;;;;;6.77;100.00;100256.28;5079959;28;20020;-77
2024/03/11 09:44:16;;;;;;;64.20;37.05;;;;;;;6.73;100.00;100255.69;5078755;28;20353;-78
2024/03/11 09:46:45;;;;;;;67.07;37.47;;;;;;;6.71;100.00;100265.56;5096557;28;20024;-78
2024/03/11 09:49:11;;;;;;;65.10;35.70;;;;;;;6.68;100.00;100265.84;5096661;28;20544;-77
2024/03/11 09:51:37;;;;;;;65.85;37.50;;;;;;;6.71;100.00;100273.50;5096562;28;20028;-78
2024/03/11 09:54:05;;;;;;;67.78;36.95;;;;;;;6.73;100.00;100274.19;5096747;28;20035;-78
2024/03/11 09:56:34;;;;;;;69.55;37.15;;;;;;;6.76;100.00;100281.06;5078456;28;20032;-78
2024/03/11 09:59:04;;;;;;;74.57;38.53;;;;;;;6.78;100.00;100281.78;5097009;28;20055;-79
2024/03/11 10:01:31;;;;;;;72.47;39.92;;;;;;;6.85;100.00;100288.22;5096623;28;20103;-77
2024/03/11 10:03:58;;;;;;;73.40;39.60;;;;;;;6.92;100.00;100297.31;5078805;28;20082;-77
2024/03/11 10:06:24;;;;;;;74.13;39.78;;;;;;;6.96;100.00;100300.56;5097367;28;20115;-78
2024/03/11 10:08:49;;;;;;;75.03;39.97;;;;;;;6.97;100.00;100299.56;5078966;28;20028;-77
2024/03/11 10:11:28;;;;;;;73.45;38.38;;;;;;;6.95;100.00;100298.88;5097250;28;20468;-77
2024/03/11 10:13:56;;;;;;;63.25;36.40;;;;;;;6.92;100.00;100299.13;5096123;28;20110;-76
2024/03/11 10:16:26;;;;;;;68.35;38.50;;;;;;;6.92;100.00;100304.41;5096160;28;20475;-77
2024/03/11 10:19:14;;;;;;;78.70;40.42;;;;;;;6.91;100.00;100302.72;5095945;28;20028;-76
2024/03/11 10:21:41;;;;;;;73.13;38.10;;;;;;;6.90;100.00;100307.19;5096063;28;20034;-77
2024/03/11 10:24:10;;;;;;;69.25;39.45;;;;;;;6.87;100.00;100310.91;5095719;28;20111;-78
2024/03/11 10:26:45;;;;;;;72.10;40.15;;;;;;;6.82;100.00;100313.13;5095901;28;20024;-78
2024/03/11 10:29:13;;;;;;;73.22;39.92;;;;;;;6.80;100.00;100320.31;5079255;28;20055;-77
2024/03/11 10:31:42;;;;;;;71.55;38.92;;;;;;;6.79;100.00;100323.09;5095865;28;20470;-77
2024/03/11 10:34:21;;;;;;;73.05;39.83;;;;;;;6.77;100.00;100325.88;5095809;28;20042;-77
2024/03/11 10:36:55;;;;;;;74.78;38.70;;;;;;;6.77;100.00;100330.34;5095815;28;20483;-76
2024/03/11 10:39:30;;;;;;;79.13;43.05;;;;;;;6.79;100.00;100336.31;5095547;28;20020;-77
2024/03/11 10:41:57;;;;;;;73.13;41.15;;;;;;;6.73;100.00;100332.38;5095710;28;20032;-76
2024/03/11 10:44:33;;;;;;;71.80;38.97;;;;;;;6.70;100.00;100330.84;5077260;28;20107;-77
2024/03/11 10:47:14;;;;;;;76.93;40.05;;;;;;;6.67;100.00;100335.53;5061897;28;20134;-77
2024/03/11 10:49:47;;;;;;;76.65;39.47;;;;;;;6.65;100.00;100343.59;5095747;28;20032;-77
2024/03/11 10:52:16;;;;;;;77.28;40.58;;;;;;;6.70;100.00;100336.13;5095344;28;20099;-78
2024/03/11 10:54:47;;;;;;;78.07;41.55;;;;;;;6.76;100.00;100339.22;5076890;28;20035;-77
2024/03/11 10:57:33;;;;;;;74.43;39.58;;;;;;;6.83;100.00;100332.47;5095916;28;20020;-76
2024/03/11 11:00:02;;;;;;;72.93;39.78;;;;;;;6.90;100.00;100336.28;5095205;28;20103;-76
2024/03/11 11:02:32;;;;;;;84.95;41.50;;;;;;;7.00;100.00;100338.97;5094959;28;20081;-77
2024/03/11 11:05:01;;;;;;;84.78;44.63;;;;;;;7.07;100.00;100340.97;5095131;28;20048;-77
2024/03/11 11:07:30;;;;;;;77.75;43.10;;;;;;;7.21;100.00;100341.63;5094968;28;20413;-77
2024/03/11 11:10:03;;;;;;;80.05;43.45;;;;;;;7.30;100.00;100340.88;5094735;28;20059;-76
2024/03/11 11:12:29;;;;;;;75.43;41.75;;;;;;;7.34;100.00;100342.28;5094899;28;20444;-76